createdAt,value
2019-03-24T00:00:36.397Z,1025.22
2019-03-24T00:01:41.023Z,1025.26
2019-03-24T00:02:37.360Z,1025.26
2019-03-24T00:03:36.358Z,1025.29
2019-03-24T00:04:36.347Z,1025.30
2019-03-24T00:05:36.352Z,1025.34
2019-03-24T00:06:36.336Z,1025.29
2019-03-24T00:07:36.317Z,1025.28
2019-03-24T00:08:36.298Z,1025.28
2019-03-24T00:09:36.297Z,1025.27
2019-03-24T00:10:36.274Z,1025.24
2019-03-24T00:11:36.313Z,1025.26
2019-03-24T00:12:36.256Z,1025.23
2019-03-24T00:13:36.251Z,1025.21
2019-03-24T00:14:36.232Z,1025.22
2019-03-24T00:15:36.227Z,1025.22
2019-03-24T00:16:36.258Z,1025.26
2019-03-24T00:17:36.218Z,1025.25
2019-03-24T00:18:36.192Z,1025.25
2019-03-24T00:19:36.190Z,1025.32
2019-03-24T00:20:36.184Z,1025.30
2019-03-24T00:21:36.162Z,1025.29
2019-03-24T00:22:36.164Z,1025.32
2019-03-24T00:23:36.140Z,1025.30
2019-03-24T00:24:36.127Z,1025.32
2019-03-24T00:25:36.118Z,1025.34
2019-03-24T00:26:36.115Z,1025.35
2019-03-24T00:27:36.117Z,1025.33
2019-03-24T00:28:36.083Z,1025.37
2019-03-24T00:29:36.070Z,1025.39
2019-03-24T00:30:36.072Z,1025.38
2019-03-24T00:31:36.051Z,1025.33
2019-03-24T00:32:36.083Z,1025.33
2019-03-24T00:33:36.040Z,1025.34
2019-03-24T00:34:36.017Z,1025.30
2019-03-24T00:35:36.013Z,1025.35
2019-03-24T00:36:36.001Z,1025.29
2019-03-24T00:37:36.006Z,1025.30
2019-03-24T00:38:36.026Z,1025.30
2019-03-24T00:39:35.965Z,1025.31
2019-03-24T00:40:35.961Z,1025.26
2019-03-24T00:41:35.945Z,1025.30
2019-03-24T00:42:35.951Z,1025.31
2019-03-24T00:43:35.923Z,1025.34
2019-03-24T00:44:35.942Z,1025.35
2019-03-24T00:45:37.110Z,1025.37
2019-03-24T00:46:35.893Z,1025.32
2019-03-24T00:47:35.925Z,1025.35
2019-03-24T00:48:35.875Z,1025.37
2019-03-24T00:49:35.863Z,1025.31
2019-03-24T00:50:35.871Z,1025.32
2019-03-24T00:51:35.843Z,1025.35
2019-03-24T00:52:35.831Z,1025.33
2019-03-24T00:53:35.831Z,1025.38
2019-03-24T00:54:35.817Z,1025.30
2019-03-24T00:55:35.797Z,1025.34
2019-03-24T00:56:35.793Z,1025.34
2019-03-24T00:57:37.540Z,1025.31
2019-03-24T00:58:35.842Z,1025.34
2019-03-24T00:59:35.756Z,1025.30
2019-03-24T01:00:35.785Z,1025.28
2019-03-24T01:01:35.733Z,1025.34
2019-03-24T01:02:35.725Z,1025.30
2019-03-24T01:03:35.763Z,1025.26
2019-03-24T01:04:35.703Z,1025.31
2019-03-24T01:05:35.691Z,1025.31
2019-03-24T01:06:35.683Z,1025.16
2019-03-24T01:07:35.674Z,1025.18
2019-03-24T01:08:35.705Z,1025.21
2019-03-24T01:09:35.649Z,1025.21
2019-03-24T01:10:35.634Z,1025.20
2019-03-24T01:11:35.626Z,1025.18
2019-03-24T01:12:35.618Z,1025.20
2019-03-24T01:13:35.628Z,1025.17
2019-03-24T01:14:35.634Z,1025.23
2019-03-24T01:15:35.586Z,1025.18
2019-03-24T01:16:35.574Z,1025.16
2019-03-24T01:17:35.562Z,1025.17
2019-03-24T01:18:35.567Z,1025.14
2019-03-24T01:19:35.546Z,1025.12
2019-03-24T01:20:35.545Z,1025.13
2019-03-24T01:21:35.539Z,1025.15
2019-03-24T01:22:35.536Z,1025.15
2019-03-24T01:23:35.519Z,1025.06
2019-03-24T01:24:35.528Z,1025.12
2019-03-24T01:25:35.480Z,1025.08
2019-03-24T01:26:35.464Z,1025.10
2019-03-24T01:27:35.468Z,1025.14
2019-03-24T01:28:35.479Z,1025.10
2019-03-24T01:29:35.454Z,1025.10
2019-03-24T01:30:35.425Z,1025.11
2019-03-24T01:31:35.420Z,1025.01
2019-03-24T01:32:35.404Z,1025.07
2019-03-24T01:33:35.411Z,1025.08
2019-03-24T01:34:35.422Z,1025.01
2019-03-24T01:35:35.374Z,1025.10
2019-03-24T01:36:35.360Z,1025.07
2019-03-24T01:37:35.356Z,1025.05
2019-03-24T01:38:35.366Z,1025.09
2019-03-24T01:39:35.328Z,1025.10
2019-03-24T01:40:35.326Z,1025.12
2019-03-24T01:41:35.310Z,1025.08
2019-03-24T01:42:35.295Z,1025.02
2019-03-24T01:43:35.288Z,1024.99
2019-03-24T01:44:35.289Z,1024.99
2019-03-24T01:45:35.263Z,1024.97
2019-03-24T01:46:35.291Z,1024.98
2019-03-24T01:47:35.250Z,1025.03
2019-03-24T01:48:35.240Z,1025.02
2019-03-24T01:49:35.243Z,1025.03
2019-03-24T01:50:35.215Z,1025.11
2019-03-24T01:51:35.204Z,1025.04
2019-03-24T01:52:35.214Z,1025.02
2019-03-24T01:53:35.183Z,1025.01
2019-03-24T01:54:35.186Z,1025.02
2019-03-24T01:55:35.162Z,1024.98
2019-03-24T01:56:35.155Z,1024.98
2019-03-24T01:57:35.133Z,1024.96
2019-03-24T01:58:35.131Z,1024.87
2019-03-24T01:59:35.128Z,1024.90
2019-03-24T02:00:35.109Z,1024.86
2019-03-24T02:01:35.093Z,1024.85
2019-03-24T02:02:35.090Z,1024.89
2019-03-24T02:03:35.071Z,1024.88
2019-03-24T02:04:35.091Z,1024.89
2019-03-24T02:05:35.053Z,1024.87
2019-03-24T02:06:35.043Z,1024.90
2019-03-24T02:07:35.039Z,1024.88
2019-03-24T02:08:35.064Z,1024.84
2019-03-24T02:09:35.039Z,1024.84
2019-03-24T02:10:35.019Z,1024.84
2019-03-24T02:11:34.989Z,1024.85
2019-03-24T02:12:34.981Z,1024.82
2019-03-24T02:13:34.965Z,1024.87
2019-03-24T02:14:34.953Z,1024.86
2019-03-24T02:15:34.968Z,1024.87
2019-03-24T02:16:34.959Z,1024.86
2019-03-24T02:17:34.929Z,1024.90
2019-03-24T02:18:34.922Z,1024.87
2019-03-24T02:19:34.905Z,1024.86
2019-03-24T02:20:34.910Z,1024.85
2019-03-24T02:21:34.885Z,1024.87
2019-03-24T02:22:34.871Z,1024.85
2019-03-24T02:23:34.877Z,1024.87
2019-03-24T02:24:34.873Z,1024.90
2019-03-24T02:25:34.861Z,1024.95
2019-03-24T02:26:34.830Z,1024.93
2019-03-24T02:27:34.817Z,1024.93
2019-03-24T02:28:34.809Z,1024.98
2019-03-24T02:29:34.804Z,1024.93
2019-03-24T02:30:34.807Z,1024.95
2019-03-24T02:31:34.774Z,1024.94
2019-03-24T02:32:34.783Z,1024.93
2019-03-24T02:33:34.757Z,1024.92
2019-03-24T02:34:34.754Z,1024.93
2019-03-24T02:35:34.839Z,1024.90
2019-03-24T02:36:34.723Z,1024.94
2019-03-24T02:37:34.712Z,1024.94
2019-03-24T02:38:34.758Z,1024.88
2019-03-24T02:39:34.693Z,1024.91
2019-03-24T02:40:34.694Z,1024.88
2019-03-24T02:41:34.672Z,1024.88
2019-03-24T02:42:34.664Z,1024.76
2019-03-24T02:43:34.646Z,1024.82
2019-03-24T02:44:34.638Z,1024.75
2019-03-24T02:45:34.708Z,1024.76
2019-03-24T02:46:34.629Z,1024.70
2019-03-24T02:47:34.607Z,1024.69
2019-03-24T02:48:34.604Z,1024.73
2019-03-24T02:49:34.584Z,1024.73
2019-03-24T02:50:34.571Z,1024.74
2019-03-24T02:51:34.579Z,1024.71
2019-03-24T02:52:34.561Z,1024.66
2019-03-24T02:53:34.550Z,1024.64
2019-03-24T02:54:34.532Z,1024.72
2019-03-24T02:55:34.524Z,1024.74
2019-03-24T02:56:34.543Z,1024.70
2019-03-24T02:57:34.497Z,1024.68
2019-03-24T02:58:34.499Z,1024.74
2019-03-24T02:59:34.480Z,1024.71
2019-03-24T03:00:34.538Z,1024.70
2019-03-24T03:01:34.458Z,1024.66
2019-03-24T03:02:34.474Z,1024.72
2019-03-24T03:03:34.435Z,1024.69
2019-03-24T03:04:34.429Z,1024.73
2019-03-24T03:05:34.425Z,1024.73
2019-03-24T03:06:34.412Z,1024.74
2019-03-24T03:07:34.421Z,1024.66
2019-03-24T03:08:34.410Z,1024.74
2019-03-24T03:09:34.381Z,1024.75
2019-03-24T03:10:34.368Z,1024.76
2019-03-24T03:11:34.349Z,1024.81
2019-03-24T03:12:34.350Z,1024.81
2019-03-24T03:13:34.346Z,1024.80
2019-03-24T03:14:34.325Z,1024.83
2019-03-24T03:15:34.304Z,1024.80
2019-03-24T03:16:38.839Z,1024.77
2019-03-24T03:17:35.290Z,1024.71
2019-03-24T03:18:34.294Z,1024.75
2019-03-24T03:19:34.264Z,1024.70
2019-03-24T03:20:34.254Z,1024.71
2019-03-24T03:21:34.251Z,1024.67
2019-03-24T03:22:34.243Z,1024.66
2019-03-24T03:23:34.255Z,1024.65
2019-03-24T03:24:34.212Z,1024.66
2019-03-24T03:25:34.215Z,1024.65
2019-03-24T03:26:34.203Z,1024.67
2019-03-24T03:27:34.194Z,1024.67
2019-03-24T03:28:34.187Z,1024.71
2019-03-24T03:29:34.170Z,1024.69
2019-03-24T03:30:34.202Z,1024.69
2019-03-24T03:31:34.142Z,1024.71
2019-03-24T03:32:34.131Z,1024.68
2019-03-24T03:33:34.146Z,1024.61
2019-03-24T03:34:34.120Z,1024.66
2019-03-24T03:35:34.105Z,1024.68
2019-03-24T03:36:34.094Z,1024.67
2019-03-24T03:37:34.091Z,1024.66
2019-03-24T03:38:34.103Z,1024.60
2019-03-24T03:39:34.061Z,1024.69
2019-03-24T03:40:34.069Z,1024.60
2019-03-24T03:41:34.040Z,1024.58
2019-03-24T03:42:34.020Z,1024.58
2019-03-24T03:43:34.086Z,1024.58
2019-03-24T03:44:34.006Z,1024.63
2019-03-24T03:45:33.989Z,1024.58
2019-03-24T03:46:33.984Z,1024.59
2019-03-24T03:47:33.991Z,1024.59
2019-03-24T03:48:33.963Z,1024.56
2019-03-24T03:49:33.972Z,1024.60
2019-03-24T03:50:33.945Z,1024.60
2019-03-24T03:51:33.924Z,1024.56
2019-03-24T03:52:33.914Z,1024.54
2019-03-24T03:53:33.903Z,1024.58
2019-03-24T03:54:33.912Z,1024.57
2019-03-24T03:55:33.887Z,1024.54
2019-03-24T03:56:33.932Z,1024.56
2019-03-24T03:57:33.865Z,1024.57
2019-03-24T03:58:33.854Z,1024.56
2019-03-24T03:59:33.862Z,1024.55
2019-03-24T04:00:33.830Z,1024.59
2019-03-24T04:01:33.817Z,1024.56
2019-03-24T04:02:33.808Z,1024.58
2019-03-24T04:03:33.807Z,1024.54
2019-03-24T04:04:33.807Z,1024.57
2019-03-24T04:05:33.834Z,1024.53
2019-03-24T04:06:33.788Z,1024.63
2019-03-24T04:07:33.806Z,1024.51
2019-03-24T04:08:33.745Z,1024.53
2019-03-24T04:09:33.760Z,1024.53
2019-03-24T04:10:33.728Z,1024.56
2019-03-24T04:11:33.715Z,1024.54
2019-03-24T04:12:33.748Z,1024.53
2019-03-24T04:13:33.692Z,1024.46
2019-03-24T04:14:33.710Z,1024.49
2019-03-24T04:15:33.681Z,1024.54
2019-03-24T04:16:33.665Z,1024.51
2019-03-24T04:17:33.652Z,1024.47
2019-03-24T04:18:33.641Z,1024.45
2019-03-24T04:19:33.650Z,1024.47
2019-03-24T04:20:33.688Z,1024.51
2019-03-24T04:21:33.613Z,1024.45
2019-03-24T04:22:33.601Z,1024.45
2019-03-24T04:23:33.583Z,1024.45
2019-03-24T04:24:33.609Z,1024.46
2019-03-24T04:25:33.579Z,1024.46
2019-03-24T04:26:33.646Z,1024.45
2019-03-24T04:27:33.545Z,1024.47
2019-03-24T04:28:33.548Z,1024.45
2019-03-24T04:29:33.537Z,1024.51
2019-03-24T04:30:33.516Z,1024.49
2019-03-24T04:31:33.503Z,1024.49
2019-03-24T04:32:33.529Z,1024.50
2019-03-24T04:33:33.476Z,1024.52
2019-03-24T04:34:33.490Z,1024.46
2019-03-24T04:35:33.458Z,1024.51
2019-03-24T04:36:33.496Z,1024.47
2019-03-24T04:37:33.472Z,1024.47
2019-03-24T04:38:33.456Z,1024.52
2019-03-24T04:39:33.422Z,1024.48
2019-03-24T04:40:33.424Z,1024.58
2019-03-24T04:41:33.394Z,1024.60
2019-03-24T04:42:33.392Z,1024.56
2019-03-24T04:43:33.376Z,1024.59
2019-03-24T04:44:33.369Z,1024.59
2019-03-24T04:45:33.415Z,1024.54
2019-03-24T04:46:33.347Z,1024.60
2019-03-24T04:47:33.336Z,1024.54
2019-03-24T04:48:33.323Z,1024.59
2019-03-24T04:49:33.312Z,1024.53
2019-03-24T04:50:33.313Z,1024.57
2019-03-24T04:51:33.333Z,1024.49
2019-03-24T04:52:33.293Z,1024.50
2019-03-24T04:53:33.267Z,1024.48
2019-03-24T04:54:33.263Z,1024.45
2019-03-24T04:55:33.267Z,1024.48
2019-03-24T04:56:33.236Z,1024.46
2019-03-24T04:57:33.231Z,1024.46
2019-03-24T04:58:33.241Z,1024.46
2019-03-24T04:59:33.211Z,1024.47
2019-03-24T05:00:33.215Z,1024.43
2019-03-24T05:01:33.189Z,1024.41
2019-03-24T05:02:33.182Z,1024.40
2019-03-24T05:03:33.165Z,1024.34
2019-03-24T05:04:33.158Z,1024.33
2019-03-24T05:05:33.194Z,1024.27
2019-03-24T05:06:33.135Z,1024.27
2019-03-24T05:07:33.123Z,1024.28
2019-03-24T05:08:33.109Z,1024.27
2019-03-24T05:09:33.099Z,1024.22
2019-03-24T05:10:33.101Z,1024.25
2019-03-24T05:11:33.132Z,1024.24
2019-03-24T05:12:33.071Z,1024.31
2019-03-24T05:13:33.061Z,1024.27
2019-03-24T05:14:33.056Z,1024.28
2019-03-24T05:15:33.075Z,1024.26
2019-03-24T05:16:33.029Z,1024.21
2019-03-24T05:17:33.017Z,1024.23
2019-03-24T05:18:33.003Z,1024.17
2019-03-24T05:19:33.044Z,1024.17
2019-03-24T05:20:32.987Z,1024.24
2019-03-24T05:21:32.989Z,1024.18
2019-03-24T05:22:32.962Z,1024.19
2019-03-24T05:23:32.959Z,1024.27
2019-03-24T05:24:32.943Z,1024.29
2019-03-24T05:25:32.986Z,1024.34
2019-03-24T05:26:32.940Z,1024.30
2019-03-24T05:27:32.909Z,1024.32
2019-03-24T05:28:32.901Z,1024.30
2019-03-24T05:29:32.897Z,1024.30
2019-03-24T05:30:32.879Z,1024.32
2019-03-24T05:31:32.885Z,1024.33
2019-03-24T05:32:32.893Z,1024.31
2019-03-24T05:33:32.845Z,1024.32
2019-03-24T05:34:32.839Z,1024.36
2019-03-24T05:35:32.832Z,1024.35
2019-03-24T05:36:32.838Z,1024.35
2019-03-24T05:37:32.815Z,1024.39
2019-03-24T05:38:32.798Z,1024.34
2019-03-24T05:39:32.789Z,1024.36
2019-03-24T05:40:32.776Z,1024.39
2019-03-24T05:41:32.840Z,1024.34
2019-03-24T05:42:32.758Z,1024.34
2019-03-24T05:43:32.746Z,1024.38
2019-03-24T05:44:32.732Z,1024.39
2019-03-24T05:45:32.719Z,1024.42
2019-03-24T05:46:32.736Z,1024.42
2019-03-24T05:47:37.018Z,1024.40
2019-03-24T05:48:32.720Z,1024.48
2019-03-24T05:49:32.682Z,1024.40
2019-03-24T05:50:32.672Z,1024.37
2019-03-24T05:51:32.705Z,1024.39
2019-03-24T05:52:32.650Z,1024.42
2019-03-24T05:53:32.638Z,1024.46
2019-03-24T05:54:32.643Z,1024.47
2019-03-24T05:55:32.614Z,1024.44
2019-03-24T05:56:32.616Z,1024.45
2019-03-24T05:57:32.595Z,1024.42
2019-03-24T05:58:32.580Z,1024.41
2019-03-24T05:59:32.572Z,1024.44
2019-03-24T06:00:32.563Z,1024.41
2019-03-24T06:01:32.599Z,1024.41
2019-03-24T06:02:32.538Z,1024.40
2019-03-24T06:03:32.532Z,1024.38
2019-03-24T06:04:32.524Z,1024.39
2019-03-24T06:05:32.510Z,1024.42
2019-03-24T06:06:32.504Z,1024.44
2019-03-24T06:07:32.504Z,1024.45
2019-03-24T06:08:32.516Z,1024.40
2019-03-24T06:09:32.462Z,1024.46
2019-03-24T06:10:32.458Z,1024.38
2019-03-24T06:11:32.459Z,1024.37
2019-03-24T06:12:32.454Z,1024.40
2019-03-24T06:13:32.430Z,1024.38
2019-03-24T06:14:32.416Z,1024.37
2019-03-24T06:15:32.412Z,1024.44
2019-03-24T06:16:32.464Z,1024.37
2019-03-24T06:17:32.412Z,1024.45
2019-03-24T06:18:32.376Z,1024.38
2019-03-24T06:19:32.369Z,1024.38
2019-03-24T06:20:32.346Z,1024.42
2019-03-24T06:21:32.344Z,1024.42
2019-03-24T06:22:32.343Z,1024.36
2019-03-24T06:23:32.356Z,1024.39
2019-03-24T06:24:32.307Z,1024.42
2019-03-24T06:25:34.812Z,1024.38
2019-03-24T06:26:32.303Z,1024.33
2019-03-24T06:27:32.285Z,1024.38
2019-03-24T06:28:32.259Z,1024.37
2019-03-24T06:29:32.268Z,1024.39
2019-03-24T06:30:32.241Z,1024.41
2019-03-24T06:31:32.234Z,1024.43
2019-03-24T06:32:32.237Z,1024.40
2019-03-24T06:33:32.209Z,1024.43
2019-03-24T06:34:32.197Z,1024.46
2019-03-24T06:35:32.192Z,1024.43
2019-03-24T06:36:32.250Z,1024.42
2019-03-24T06:37:32.185Z,1024.42
2019-03-24T06:38:32.155Z,1024.39
2019-03-24T06:39:32.149Z,1024.35
2019-03-24T06:40:32.132Z,1024.40
2019-03-24T06:41:32.125Z,1024.39
2019-03-24T06:42:32.149Z,1024.30
2019-03-24T06:43:32.099Z,1024.33
2019-03-24T06:44:32.095Z,1024.32
2019-03-24T06:45:32.087Z,1024.28
2019-03-24T06:46:32.077Z,1024.30
2019-03-24T06:47:32.097Z,1024.28
2019-03-24T06:48:32.049Z,1024.37
2019-03-24T06:49:32.057Z,1024.28
2019-03-24T06:50:32.031Z,1024.31
2019-03-24T06:51:32.015Z,1024.30
2019-03-24T06:52:32.003Z,1024.35
2019-03-24T06:53:32.007Z,1024.33
2019-03-24T06:54:31.980Z,1024.38
2019-03-24T06:55:31.993Z,1024.37
2019-03-24T06:56:31.963Z,1024.35
2019-03-24T06:57:31.949Z,1024.35
2019-03-24T06:58:32.148Z,1024.36
2019-03-24T06:59:31.951Z,1024.33
2019-03-24T07:00:31.922Z,1024.36
2019-03-24T07:01:31.968Z,1024.32
2019-03-24T07:02:31.894Z,1024.37
2019-03-24T07:03:32.784Z,1024.30
2019-03-24T07:04:32.186Z,1024.29
2019-03-24T07:05:31.862Z,1024.28
2019-03-24T07:06:31.858Z,1024.34
2019-03-24T07:07:31.841Z,1024.36
2019-03-24T07:08:31.849Z,1024.37
2019-03-24T07:09:31.887Z,1024.37
2019-03-24T07:10:31.836Z,1024.46
2019-03-24T07:11:31.804Z,1024.51
2019-03-24T07:12:31.790Z,1024.50
2019-03-24T07:13:31.793Z,1024.47
2019-03-24T07:14:31.770Z,1024.45
2019-03-24T07:15:31.788Z,1024.59
2019-03-24T07:16:31.744Z,1024.50
2019-03-24T07:17:31.749Z,1024.57
2019-03-24T07:18:31.745Z,1024.45
2019-03-24T07:19:31.723Z,1024.51
2019-03-24T07:20:31.702Z,1024.54
2019-03-24T07:21:31.724Z,1024.55
2019-03-24T07:22:31.691Z,1024.50
2019-03-24T07:23:31.746Z,1024.46
2019-03-24T07:24:31.662Z,1024.46
2019-03-24T07:25:31.653Z,1024.46
2019-03-24T07:26:31.638Z,1024.52
2019-03-24T07:27:31.636Z,1024.44
2019-03-24T07:28:31.634Z,1024.41
2019-03-24T07:29:31.624Z,1024.54
2019-03-24T07:30:31.596Z,1024.53
2019-03-24T07:31:31.586Z,1024.48
2019-03-24T07:32:31.572Z,1024.45
2019-03-24T07:33:31.594Z,1024.42
2019-03-24T07:34:31.550Z,1024.51
2019-03-24T07:35:31.558Z,1024.59
2019-03-24T07:36:31.528Z,1024.51
2019-03-24T07:37:31.520Z,1024.63
2019-03-24T07:38:31.511Z,1024.54
2019-03-24T07:39:31.516Z,1024.67
2019-03-24T07:40:31.490Z,1024.65
2019-03-24T07:41:31.498Z,1024.84
2019-03-24T07:42:31.466Z,1024.50
2019-03-24T07:43:31.453Z,1024.52
2019-03-24T07:44:31.458Z,1024.41
2019-03-24T07:45:31.433Z,1024.93
2019-03-24T07:46:31.420Z,1024.52
2019-03-24T07:47:31.425Z,1024.68
2019-03-24T07:48:31.413Z,1024.73
2019-03-24T07:49:31.436Z,1024.49
2019-03-24T07:50:31.381Z,1024.69
2019-03-24T07:51:31.380Z,1024.55
2019-03-24T07:52:31.365Z,1024.88
2019-03-24T07:53:31.356Z,1024.60
2019-03-24T07:54:31.392Z,1024.58
2019-03-24T07:55:31.334Z,1024.66
2019-03-24T07:56:31.329Z,1024.58
2019-03-24T07:57:31.327Z,1024.58
2019-03-24T07:58:31.313Z,1024.81
2019-03-24T07:59:31.295Z,1024.59
2019-03-24T08:00:31.306Z,1024.54
2019-03-24T08:01:31.266Z,1024.60
2019-03-24T08:02:31.252Z,1024.65
2019-03-24T08:03:31.269Z,1024.56
2019-03-24T08:04:31.243Z,1024.54
2019-03-24T08:05:31.221Z,1024.54
2019-03-24T08:06:31.207Z,1024.54
2019-03-24T08:07:31.201Z,1024.57
2019-03-24T08:08:31.210Z,1024.72
2019-03-24T08:09:31.217Z,1024.52
2019-03-24T08:10:31.175Z,1024.50
2019-03-24T08:11:31.152Z,1024.42
2019-03-24T08:12:31.145Z,1024.80
2019-03-24T08:13:31.141Z,1024.47
2019-03-24T08:14:31.158Z,1024.39
2019-03-24T08:15:31.113Z,1024.75
2019-03-24T08:16:31.127Z,1024.51
2019-03-24T08:17:31.097Z,1024.77
2019-03-24T08:18:31.075Z,1024.72
2019-03-24T08:19:31.085Z,1024.81
2019-03-24T08:20:31.059Z,1024.57
2019-03-24T08:21:31.045Z,1024.59
2019-03-24T08:22:31.041Z,1024.69
2019-03-24T08:23:31.033Z,1024.43
2019-03-24T08:24:31.041Z,1024.36
2019-03-24T08:25:31.015Z,1024.34
2019-03-24T08:26:30.992Z,1024.32
2019-03-24T08:27:30.986Z,1024.16
2019-03-24T08:28:30.975Z,1024.15
2019-03-24T08:29:30.996Z,1024.07
2019-03-24T08:30:30.953Z,1024.00
2019-03-24T08:31:30.951Z,1024.18
2019-03-24T08:32:30.934Z,1023.94
2019-03-24T08:33:30.928Z,1023.98
2019-03-24T08:34:30.915Z,1023.86
2019-03-24T08:35:30.921Z,1024.01
2019-03-24T08:36:30.906Z,1023.85
2019-03-24T08:37:30.891Z,1024.01
2019-03-24T08:38:30.877Z,1023.91
2019-03-24T08:39:30.865Z,1024.01
2019-03-24T08:40:30.861Z,1023.96
2019-03-24T08:41:30.853Z,1024.02
2019-03-24T08:42:30.837Z,1023.97
2019-03-24T08:43:30.814Z,1023.92
2019-03-24T08:44:30.824Z,1023.98
2019-03-24T08:45:30.805Z,1023.95
2019-03-24T08:46:30.776Z,1023.99
2019-03-24T08:47:30.784Z,1024.11
2019-03-24T08:48:40.424Z,1023.97
2019-03-24T08:49:31.744Z,1024.13
2019-03-24T08:50:30.754Z,1023.96
2019-03-24T08:51:30.731Z,1023.83
2019-03-24T08:52:30.714Z,1023.77
2019-03-24T08:53:30.734Z,1023.83
2019-03-24T08:54:30.690Z,1023.76
2019-03-24T08:55:30.696Z,1023.79
2019-03-24T08:56:30.672Z,1023.92
2019-03-24T08:57:32.520Z,1023.73
2019-03-24T08:58:30.658Z,1023.69
2019-03-24T08:59:30.701Z,1023.77
2019-03-24T09:00:31.172Z,1023.79
2019-03-24T09:01:30.619Z,1023.75
2019-03-24T09:02:30.606Z,1023.71
2019-03-24T09:03:32.553Z,1023.74
2019-03-24T09:04:30.586Z,1023.64
2019-03-24T09:05:30.608Z,1023.80
2019-03-24T09:06:30.592Z,1023.63
2019-03-24T09:07:30.554Z,1023.60
2019-03-24T09:08:30.544Z,1023.54
2019-03-24T09:09:30.534Z,1023.51
2019-03-24T09:10:30.532Z,1023.58
2019-03-24T09:11:31.413Z,1023.68
2019-03-24T09:12:31.326Z,1023.45
2019-03-24T09:13:30.492Z,1023.39
2019-03-24T09:14:30.479Z,1023.48
2019-03-24T09:15:30.485Z,1023.32
2019-03-24T09:16:30.456Z,1023.39
2019-03-24T09:17:30.536Z,1023.48
2019-03-24T09:18:30.452Z,1023.33
2019-03-24T09:19:30.431Z,1023.55
2019-03-24T09:20:40.988Z,1023.52
2019-03-24T09:21:31.416Z,1023.79
2019-03-24T09:22:30.399Z,1023.61
2019-03-24T09:23:30.385Z,1023.47
2019-03-24T09:24:30.374Z,1023.37
2019-03-24T09:25:30.487Z,1023.22
2019-03-24T09:26:30.378Z,1023.20
2019-03-24T09:27:30.344Z,1023.30
2019-03-24T09:28:30.327Z,1023.28
2019-03-24T09:29:30.318Z,1023.25
2019-03-24T09:30:30.327Z,1023.21
2019-03-24T09:31:30.300Z,1023.09
2019-03-24T09:32:30.311Z,1023.13
2019-03-24T09:33:30.272Z,1023.11
2019-03-24T09:34:30.266Z,1023.33
2019-03-24T09:35:30.265Z,1023.28
2019-03-24T09:36:30.239Z,1023.21
2019-03-24T09:37:30.238Z,1023.28
2019-03-24T09:38:30.219Z,1023.23
2019-03-24T09:39:30.241Z,1022.95
2019-03-24T09:40:30.222Z,1023.01
2019-03-24T09:41:30.189Z,1023.16
2019-03-24T09:42:30.175Z,1023.12
2019-03-24T09:43:30.166Z,1023.16
2019-03-24T09:44:30.168Z,1023.20
2019-03-24T09:45:30.155Z,1023.04
2019-03-24T09:46:30.210Z,1023.00
2019-03-24T09:47:30.266Z,1023.22
2019-03-24T09:48:30.111Z,1023.11
2019-03-24T09:49:30.102Z,1023.21
2019-03-24T09:50:30.092Z,1023.25
2019-03-24T09:51:30.304Z,1023.01
2019-03-24T09:52:30.070Z,1022.97
2019-03-24T09:53:30.118Z,1023.03
2019-03-24T09:54:30.046Z,1023.14
2019-03-24T09:55:30.043Z,1023.21
2019-03-24T09:56:30.053Z,1023.12
2019-03-24T09:57:30.025Z,1023.13
2019-03-24T09:58:30.010Z,1023.30
2019-03-24T09:59:29.995Z,1023.17
2019-03-24T10:00:29.986Z,1022.96
2019-03-24T10:01:29.999Z,1022.94
2019-03-24T10:02:29.986Z,1022.89
2019-03-24T10:03:30.019Z,1023.06
2019-03-24T10:04:29.948Z,1022.87
2019-03-24T10:05:30.051Z,1022.76
2019-03-24T10:06:29.936Z,1022.85
2019-03-24T10:07:29.913Z,1022.84
2019-03-24T10:08:30.118Z,1022.88
2019-03-24T10:09:29.888Z,1022.88
2019-03-24T10:10:38.006Z,1022.97
2019-03-24T10:11:29.936Z,1022.82
2019-03-24T10:12:29.854Z,1022.79
2019-03-24T10:13:29.852Z,1022.92
2019-03-24T10:14:29.836Z,1022.88
2019-03-24T10:15:30.037Z,1022.86
2019-03-24T10:16:29.833Z,1023.07
2019-03-24T10:17:39.690Z,1023.03
2019-03-24T10:18:29.798Z,1022.69
2019-03-24T10:19:29.778Z,1022.68
2019-03-24T10:20:29.770Z,1022.71
2019-03-24T10:21:29.776Z,1022.66
2019-03-24T10:22:29.758Z,1023.27
2019-03-24T10:23:29.742Z,1023.20
2019-03-24T10:24:29.738Z,1022.97
2019-03-24T10:25:29.719Z,1022.96
2019-03-24T10:26:29.722Z,1022.85
2019-03-24T10:27:29.720Z,1022.75
2019-03-24T10:28:29.688Z,1022.70
2019-03-24T10:29:29.685Z,1022.55
2019-03-24T10:30:29.666Z,1022.49
2019-03-24T10:31:29.681Z,1022.49
2019-03-24T10:32:29.660Z,1022.52
2019-03-24T10:33:29.684Z,1022.60
2019-03-24T10:34:29.627Z,1022.85
2019-03-24T10:35:29.614Z,1022.57
2019-03-24T10:36:29.630Z,1022.52
2019-03-24T10:37:29.595Z,1022.51
2019-03-24T10:38:29.587Z,1022.49
2019-03-24T10:39:31.838Z,1022.51
2019-03-24T10:40:29.560Z,1022.46
2019-03-24T10:41:29.571Z,1022.49
2019-03-24T10:42:29.549Z,1022.48
2019-03-24T10:43:29.533Z,1022.50
2019-03-24T10:44:29.521Z,1022.93
2019-03-24T10:45:29.520Z,1022.95
2019-03-24T10:46:29.510Z,1022.79
2019-03-24T10:47:29.497Z,1022.72
2019-03-24T10:48:33.628Z,1022.58
2019-03-24T10:49:29.463Z,1022.46
2019-03-24T10:50:29.468Z,1022.39
2019-03-24T10:51:29.471Z,1022.60
2019-03-24T10:52:29.430Z,1022.64
2019-03-24T10:53:29.421Z,1022.80
2019-03-24T10:54:29.419Z,1022.97
2019-03-24T10:55:29.397Z,1022.76
2019-03-24T10:56:29.420Z,1022.94
2019-03-24T10:57:29.373Z,1023.05
2019-03-24T10:58:29.369Z,1023.03
2019-03-24T10:59:29.367Z,1022.91
2019-03-24T11:00:29.345Z,1022.76
2019-03-24T11:01:29.343Z,1022.39
2019-03-24T11:02:29.345Z,1022.29
2019-03-24T11:03:29.309Z,1022.44
2019-03-24T11:04:29.322Z,1022.52
2019-03-24T11:05:29.291Z,1022.45
2019-03-24T11:06:29.274Z,1022.24
2019-03-24T11:07:29.286Z,1022.03
2019-03-24T11:08:29.259Z,1022.05
2019-03-24T11:09:29.302Z,1022.20
2019-03-24T11:10:29.239Z,1022.19
2019-03-24T11:11:29.230Z,1022.38
2019-03-24T11:12:29.231Z,1022.42
2019-03-24T11:13:29.213Z,1022.39
2019-03-24T11:14:29.206Z,1022.48
2019-03-24T11:15:29.188Z,1022.62
2019-03-24T11:16:29.173Z,1022.77
2019-03-24T11:17:29.209Z,1022.66
2019-03-24T11:18:29.179Z,1022.55
2019-03-24T11:19:35.747Z,1022.61
2019-03-24T11:20:30.154Z,1022.73
2019-03-24T11:21:29.121Z,1022.57
2019-03-24T11:22:29.129Z,1022.86
2019-03-24T11:23:29.107Z,1022.63
2019-03-24T11:24:29.099Z,1022.67
2019-03-24T11:25:29.085Z,1023.00
2019-03-24T11:26:29.076Z,1022.52
2019-03-24T11:27:29.070Z,1022.57
2019-03-24T11:28:29.056Z,1022.37
2019-03-24T11:29:29.048Z,1022.23
2019-03-24T11:30:29.027Z,1022.36
2019-03-24T11:31:29.020Z,1022.39
2019-03-24T11:32:29.031Z,1022.44
2019-03-24T11:33:29.712Z,1022.44
2019-03-24T11:34:28.997Z,1022.37
2019-03-24T11:35:28.981Z,1022.18
2019-03-24T11:36:28.974Z,1022.31
2019-03-24T11:37:28.968Z,1022.30
2019-03-24T11:38:28.953Z,1022.10
2019-03-24T11:39:28.954Z,1022.10
2019-03-24T11:40:28.932Z,1022.24
2019-03-24T11:41:28.934Z,1022.31
2019-03-24T11:42:28.926Z,1021.97
2019-03-24T11:43:28.901Z,1021.93
2019-03-24T11:44:28.901Z,1022.06
2019-03-24T11:45:28.878Z,1022.02
2019-03-24T11:46:28.860Z,1021.86
2019-03-24T11:47:28.890Z,1021.85
2019-03-24T11:48:28.838Z,1022.45
2019-03-24T11:49:28.830Z,1022.35
2019-03-24T11:50:28.820Z,1021.83
2019-03-24T11:51:28.810Z,1022.23
2019-03-24T11:52:28.836Z,1022.32
2019-03-24T11:53:28.788Z,1022.39
2019-03-24T11:54:28.779Z,1021.69
2019-03-24T11:55:28.772Z,1022.28
2019-03-24T11:56:28.760Z,1021.95
2019-03-24T11:57:28.755Z,1022.11
2019-03-24T11:58:28.739Z,1022.06
2019-03-24T11:59:28.721Z,1021.98
2019-03-24T12:00:28.716Z,1022.44
2019-03-24T12:01:38.031Z,1021.84
2019-03-24T12:02:29.710Z,1022.49
2019-03-24T12:03:28.691Z,1022.41
2019-03-24T12:04:28.679Z,1021.77
2019-03-24T12:05:28.663Z,1021.70